sensor_id;sensor_type;location;lat;lon;timestamp;P1;durP1;ratioP1;P2;durP2;ratioP2
4307;SDS011;2167;53.448;9.984;2023-05-13T00:00:33;7.23;;;6.07;;
4307;SDS011;2167;53.448;9.984;2023-05-13T00:02:58;10.67;;;5.70;;
4307;SDS011;2167;53.448;9.984;2023-05-13T00:05:24;10.20;;;6.43;;
4307;SDS011;2167;53.448;9.984;2023-05-13T00:07:50;9.70;;;6.50;;
4307;SDS011;2167;53.448;9.984;2023-05-13T00:10:16;8.90;;;7.27;;
4307;SDS011;2167;53.448;9.984;2023-05-13T00:12:41;10.73;;;6.50;;
4307;SDS011;2167;53.448;9.984;2023-05-13T00:15:07;9.73;;;5.50;;
4307;SDS011;2167;53.448;9.984;2023-05-13T00:17:33;7.53;;;6.30;;
4307;SDS011;2167;53.448;9.984;2023-05-13T00:19:59;7.97;;;5.73;;
4307;SDS011;2167;53.448;9.984;2023-05-13T00:22:25;7.33;;;5.97;;
4307;SDS011;2167;53.448;9.984;2023-05-13T00:24:50;7.03;;;5.50;;
4307;SDS011;2167;53.448;9.984;2023-05-13T00:27:16;7.30;;;5.27;;
4307;SDS011;2167;53.448;9.984;2023-05-13T00:29:42;6.23;;;5.50;;
4307;SDS011;2167;53.448;9.984;2023-05-13T00:32:07;8.00;;;6.37;;
4307;SDS011;2167;53.448;9.984;2023-05-13T00:34:33;8.80;;;5.80;;
4307;SDS011;2167;53.448;9.984;2023-05-13T00:36:58;8.57;;;5.80;;
4307;SDS011;2167;53.448;9.984;2023-05-13T00:39:24;8.10;;;6.63;;
4307;SDS011;2167;53.448;9.984;2023-05-13T00:41:51;7.20;;;6.07;;
4307;SDS011;2167;53.448;9.984;2023-05-13T00:44:17;8.50;;;6.27;;
4307;SDS011;2167;53.448;9.984;2023-05-13T00:46:42;6.90;;;5.33;;
4307;SDS011;2167;53.448;9.984;2023-05-13T00:49:08;11.30;;;5.90;;
4307;SDS011;2167;53.448;9.984;2023-05-13T00:51:34;6.67;;;6.03;;
4307;SDS011;2167;53.448;9.984;2023-05-13T00:54:00;11.27;;;6.23;;
4307;SDS011;2167;53.448;9.984;2023-05-13T00:56:26;15.83;;;8.10;;
4307;SDS011;2167;53.448;9.984;2023-05-13T00:58:51;12.17;;;6.77;;
4307;SDS011;2167;53.448;9.984;2023-05-13T01:04:26;8.10;;;5.63;;
4307;SDS011;2167;53.448;9.984;2023-05-13T01:07:11;7.03;;;6.17;;
4307;SDS011;2167;53.448;9.984;2023-05-13T01:12:35;6.80;;;5.77;;
4307;SDS011;2167;53.448;9.984;2023-05-13T01:15:08;9.83;;;5.43;;
4307;SDS011;2167;53.448;9.984;2023-05-13T01:17:44;8.80;;;5.33;;
4307;SDS011;2167;53.448;9.984;2023-05-13T01:20:19;6.43;;;5.80;;
4307;SDS011;2167;53.448;9.984;2023-05-13T01:22:46;6.77;;;5.83;;
4307;SDS011;2167;53.448;9.984;2023-05-13T01:25:12;7.50;;;6.00;;
4307;SDS011;2167;53.448;9.984;2023-05-13T01:27:38;8.70;;;5.40;;
4307;SDS011;2167;53.448;9.984;2023-05-13T01:30:04;8.70;;;4.80;;
4307;SDS011;2167;53.448;9.984;2023-05-13T01:32:30;7.33;;;5.47;;
4307;SDS011;2167;53.448;9.984;2023-05-13T01:34:57;10.60;;;5.37;;
4307;SDS011;2167;53.448;9.984;2023-05-13T01:37:23;7.27;;;5.30;;
4307;SDS011;2167;53.448;9.984;2023-05-13T01:39:49;5.33;;;4.70;;
4307;SDS011;2167;53.448;9.984;2023-05-13T01:42:15;6.03;;;5.43;;
4307;SDS011;2167;53.448;9.984;2023-05-13T01:44:41;7.47;;;5.00;;
4307;SDS011;2167;53.448;9.984;2023-05-13T01:47:07;8.17;;;5.97;;
4307;SDS011;2167;53.448;9.984;2023-05-13T01:49:32;6.33;;;5.70;;
4307;SDS011;2167;53.448;9.984;2023-05-13T01:51:58;7.97;;;5.10;;
4307;SDS011;2167;53.448;9.984;2023-05-13T01:54:23;8.30;;;4.67;;
4307;SDS011;2167;53.448;9.984;2023-05-13T01:56:49;7.03;;;5.50;;
4307;SDS011;2167;53.448;9.984;2023-05-13T01:59:15;5.80;;;5.20;;
4307;SDS011;2167;53.448;9.984;2023-05-13T02:01:40;6.53;;;5.83;;
4307;SDS011;2167;53.448;9.984;2023-05-13T02:04:06;6.63;;;5.67;;
4307;SDS011;2167;53.448;9.984;2023-05-13T02:06:32;7.70;;;4.80;;
4307;SDS011;2167;53.448;9.984;2023-05-13T02:08:57;6.77;;;5.17;;
4307;SDS011;2167;53.448;9.984;2023-05-13T02:11:23;5.97;;;5.40;;
4307;SDS011;2167;53.448;9.984;2023-05-13T02:13:51;7.20;;;5.47;;
4307;SDS011;2167;53.448;9.984;2023-05-13T02:16:17;6.50;;;5.40;;
4307;SDS011;2167;53.448;9.984;2023-05-13T02:18:43;7.10;;;5.43;;
4307;SDS011;2167;53.448;9.984;2023-05-13T02:21:08;10.00;;;5.47;;
4307;SDS011;2167;53.448;9.984;2023-05-13T02:23:34;7.43;;;5.27;;
4307;SDS011;2167;53.448;9.984;2023-05-13T02:25:59;7.60;;;6.23;;
4307;SDS011;2167;53.448;9.984;2023-05-13T02:28:25;10.97;;;6.07;;
4307;SDS011;2167;53.448;9.984;2023-05-13T02:30:51;8.03;;;5.00;;
4307;SDS011;2167;53.448;9.984;2023-05-13T02:33:16;8.00;;;5.90;;
4307;SDS011;2167;53.448;9.984;2023-05-13T02:35:42;6.77;;;6.00;;
4307;SDS011;2167;53.448;9.984;2023-05-13T02:38:08;7.00;;;5.93;;
4307;SDS011;2167;53.448;9.984;2023-05-13T02:40:34;7.20;;;5.33;;
4307;SDS011;2167;53.448;9.984;2023-05-13T02:43:00;7.50;;;5.40;;
4307;SDS011;2167;53.448;9.984;2023-05-13T02:45:25;7.37;;;6.60;;
4307;SDS011;2167;53.448;9.984;2023-05-13T02:47:51;6.10;;;4.80;;
4307;SDS011;2167;53.448;9.984;2023-05-13T02:50:17;9.80;;;6.00;;
4307;SDS011;2167;53.448;9.984;2023-05-13T02:52:43;5.90;;;5.30;;
4307;SDS011;2167;53.448;9.984;2023-05-13T02:55:09;6.27;;;5.03;;
4307;SDS011;2167;53.448;9.984;2023-05-13T02:57:35;6.37;;;5.13;;
4307;SDS011;2167;53.448;9.984;2023-05-13T03:00:02;7.33;;;5.73;;
4307;SDS011;2167;53.448;9.984;2023-05-13T03:02:30;9.60;;;6.00;;
4307;SDS011;2167;53.448;9.984;2023-05-13T03:04:56;7.30;;;5.80;;
4307;SDS011;2167;53.448;9.984;2023-05-13T03:07:22;13.17;;;6.90;;
4307;SDS011;2167;53.448;9.984;2023-05-13T03:09:48;7.40;;;5.53;;
4307;SDS011;2167;53.448;9.984;2023-05-13T03:12:14;9.77;;;6.20;;
4307;SDS011;2167;53.448;9.984;2023-05-13T03:14:40;9.00;;;5.33;;
4307;SDS011;2167;53.448;9.984;2023-05-13T03:17:07;8.70;;;5.97;;
4307;SDS011;2167;53.448;9.984;2023-05-13T03:19:33;7.17;;;5.00;;
4307;SDS011;2167;53.448;9.984;2023-05-13T03:21:59;9.53;;;6.67;;
4307;SDS011;2167;53.448;9.984;2023-05-13T03:24:25;11.43;;;6.27;;
4307;SDS011;2167;53.448;9.984;2023-05-13T03:26:51;9.37;;;6.07;;
4307;SDS011;2167;53.448;9.984;2023-05-13T03:29:17;7.90;;;6.13;;
4307;SDS011;2167;53.448;9.984;2023-05-13T03:31:42;8.23;;;6.27;;
4307;SDS011;2167;53.448;9.984;2023-05-13T03:34:08;10.73;;;5.50;;
4307;SDS011;2167;53.448;9.984;2023-05-13T03:36:33;10.07;;;5.80;;
4307;SDS011;2167;53.448;9.984;2023-05-13T03:38:59;7.97;;;6.20;;
4307;SDS011;2167;53.448;9.984;2023-05-13T03:41:24;8.57;;;5.60;;
4307;SDS011;2167;53.448;9.984;2023-05-13T03:43:52;8.90;;;6.70;;
4307;SDS011;2167;53.448;9.984;2023-05-13T03:46:18;8.53;;;5.73;;
4307;SDS011;2167;53.448;9.984;2023-05-13T03:48:44;12.30;;;6.27;;
4307;SDS011;2167;53.448;9.984;2023-05-13T03:51:09;7.10;;;5.33;;
4307;SDS011;2167;53.448;9.984;2023-05-13T03:53:35;9.33;;;6.80;;
4307;SDS011;2167;53.448;9.984;2023-05-13T03:56:01;8.73;;;6.63;;
4307;SDS011;2167;53.448;9.984;2023-05-13T03:58:26;8.67;;;6.73;;
4307;SDS011;2167;53.448;9.984;2023-05-13T04:00:52;14.30;;;7.23;;
4307;SDS011;2167;53.448;9.984;2023-05-13T04:03:17;11.10;;;7.37;;
4307;SDS011;2167;53.448;9.984;2023-05-13T04:05:46;14.20;;;7.47;;
4307;SDS011;2167;53.448;9.984;2023-05-13T04:08:12;12.33;;;7.10;;
4307;SDS011;2167;53.448;9.984;2023-05-13T04:10:39;8.47;;;6.93;;
4307;SDS011;2167;53.448;9.984;2023-05-13T04:13:06;9.87;;;7.20;;
4307;SDS011;2167;53.448;9.984;2023-05-13T04:15:32;7.87;;;6.73;;
4307;SDS011;2167;53.448;9.984;2023-05-13T04:17:57;11.90;;;6.40;;
4307;SDS011;2167;53.448;9.984;2023-05-13T04:20:23;12.60;;;8.10;;
4307;SDS011;2167;53.448;9.984;2023-05-13T04:22:49;9.47;;;6.93;;
4307;SDS011;2167;53.448;9.984;2023-05-13T04:25:15;11.87;;;7.93;;
4307;SDS011;2167;53.448;9.984;2023-05-13T04:27:41;8.37;;;7.20;;
4307;SDS011;2167;53.448;9.984;2023-05-13T04:30:07;7.77;;;6.70;;
4307;SDS011;2167;53.448;9.984;2023-05-13T04:32:33;15.83;;;8.47;;
4307;SDS011;2167;53.448;9.984;2023-05-13T04:34:59;11.97;;;7.50;;
4307;SDS011;2167;53.448;9.984;2023-05-13T04:37:24;14.30;;;6.50;;
4307;SDS011;2167;53.448;9.984;2023-05-13T04:39:50;12.40;;;8.57;;
4307;SDS011;2167;53.448;9.984;2023-05-13T04:42:16;8.80;;;7.10;;
4307;SDS011;2167;53.448;9.984;2023-05-13T04:44:42;11.20;;;7.40;;
4307;SDS011;2167;53.448;9.984;2023-05-13T04:47:08;10.47;;;7.07;;
4307;SDS011;2167;53.448;9.984;2023-05-13T04:49:33;9.73;;;7.67;;
4307;SDS011;2167;53.448;9.984;2023-05-13T04:52:03;19.50;;;8.33;;
4307;SDS011;2167;53.448;9.984;2023-05-13T04:54:29;9.93;;;7.63;;
4307;SDS011;2167;53.448;9.984;2023-05-13T04:56:55;10.70;;;7.40;;
4307;SDS011;2167;53.448;9.984;2023-05-13T04:59:20;11.90;;;8.00;;
4307;SDS011;2167;53.448;9.984;2023-05-13T05:01:46;13.30;;;9.10;;
4307;SDS011;2167;53.448;9.984;2023-05-13T05:04:12;13.13;;;8.17;;
4307;SDS011;2167;53.448;9.984;2023-05-13T05:06:38;10.03;;;8.90;;
4307;SDS011;2167;53.448;9.984;2023-05-13T05:09:04;11.87;;;8.50;;
4307;SDS011;2167;53.448;9.984;2023-05-13T05:11:29;13.40;;;7.30;;
4307;SDS011;2167;53.448;9.984;2023-05-13T05:13:55;13.03;;;7.93;;
4307;SDS011;2167;53.448;9.984;2023-05-13T05:16:21;11.20;;;7.33;;
4307;SDS011;2167;53.448;9.984;2023-05-13T05:18:46;9.03;;;7.13;;
4307;SDS011;2167;53.448;9.984;2023-05-13T05:21:12;13.60;;;7.33;;
4307;SDS011;2167;53.448;9.984;2023-05-13T05:23:38;12.20;;;7.83;;
4307;SDS011;2167;53.448;9.984;2023-05-13T05:26:03;14.57;;;8.20;;
4307;SDS011;2167;53.448;9.984;2023-05-13T05:28:29;9.10;;;7.50;;
4307;SDS011;2167;53.448;9.984;2023-05-13T05:30:55;10.77;;;6.63;;
4307;SDS011;2167;53.448;9.984;2023-05-13T05:33:21;9.97;;;7.60;;
4307;SDS011;2167;53.448;9.984;2023-05-13T05:35:48;7.77;;;6.90;;
4307;SDS011;2167;53.448;9.984;2023-05-13T05:38:13;11.03;;;7.67;;
4307;SDS011;2167;53.448;9.984;2023-05-13T05:40:43;10.00;;;7.30;;
4307;SDS011;2167;53.448;9.984;2023-05-13T05:43:09;10.23;;;7.00;;
4307;SDS011;2167;53.448;9.984;2023-05-13T05:45:36;9.90;;;6.73;;
4307;SDS011;2167;53.448;9.984;2023-05-13T05:48:02;11.67;;;7.13;;
4307;SDS011;2167;53.448;9.984;2023-05-13T05:50:28;11.90;;;7.30;;
4307;SDS011;2167;53.448;9.984;2023-05-13T05:52:55;14.87;;;7.07;;
4307;SDS011;2167;53.448;9.984;2023-05-13T05:55:21;6.93;;;6.20;;
4307;SDS011;2167;53.448;9.984;2023-05-13T05:57:47;11.90;;;6.67;;
4307;SDS011;2167;53.448;9.984;2023-05-13T06:00:12;15.03;;;7.40;;
4307;SDS011;2167;53.448;9.984;2023-05-13T06:02:39;11.43;;;7.10;;
4307;SDS011;2167;53.448;9.984;2023-05-13T06:05:04;7.70;;;6.60;;
4307;SDS011;2167;53.448;9.984;2023-05-13T06:07:30;9.57;;;7.10;;
4307;SDS011;2167;53.448;9.984;2023-05-13T06:09:56;9.90;;;7.70;;
4307;SDS011;2167;53.448;9.984;2023-05-13T06:12:22;7.83;;;6.97;;
4307;SDS011;2167;53.448;9.984;2023-05-13T06:14:47;11.60;;;6.13;;
4307;SDS011;2167;53.448;9.984;2023-05-13T06:17:13;9.10;;;6.43;;
4307;SDS011;2167;53.448;9.984;2023-05-13T06:19:42;8.10;;;6.40;;
4307;SDS011;2167;53.448;9.984;2023-05-13T06:22:08;7.57;;;5.73;;
4307;SDS011;2167;53.448;9.984;2023-05-13T06:24:34;7.70;;;5.80;;
4307;SDS011;2167;53.448;9.984;2023-05-13T06:27:00;10.87;;;7.60;;
4307;SDS011;2167;53.448;9.984;2023-05-13T06:29:26;20.50;;;6.10;;
4307;SDS011;2167;53.448;9.984;2023-05-13T06:31:52;6.47;;;5.73;;
4307;SDS011;2167;53.448;9.984;2023-05-13T06:34:18;12.97;;;6.43;;
4307;SDS011;2167;53.448;9.984;2023-05-13T06:36:44;11.77;;;6.27;;
4307;SDS011;2167;53.448;9.984;2023-05-13T06:39:10;10.73;;;6.67;;
4307;SDS011;2167;53.448;9.984;2023-05-13T06:41:36;7.97;;;5.90;;
4307;SDS011;2167;53.448;9.984;2023-05-13T06:44:02;6.30;;;5.57;;
4307;SDS011;2167;53.448;9.984;2023-05-13T06:46:29;7.17;;;5.30;;
4307;SDS011;2167;53.448;9.984;2023-05-13T06:48:54;8.10;;;5.90;;
4307;SDS011;2167;53.448;9.984;2023-05-13T06:51:21;6.00;;;4.80;;
4307;SDS011;2167;53.448;9.984;2023-05-13T06:53:47;9.30;;;5.47;;
4307;SDS011;2167;53.448;9.984;2023-05-13T06:56:12;8.47;;;5.20;;
4307;SDS011;2167;53.448;9.984;2023-05-13T06:58:38;7.80;;;5.73;;
4307;SDS011;2167;53.448;9.984;2023-05-13T07:01:03;5.87;;;5.37;;
4307;SDS011;2167;53.448;9.984;2023-05-13T07:03:29;10.53;;;5.70;;
4307;SDS011;2167;53.448;9.984;2023-05-13T07:05:55;9.00;;;5.07;;
4307;SDS011;2167;53.448;9.984;2023-05-13T07:08:21;8.57;;;5.90;;
4307;SDS011;2167;53.448;9.984;2023-05-13T07:10:47;5.43;;;4.93;;
4307;SDS011;2167;53.448;9.984;2023-05-13T07:13:12;5.97;;;5.30;;
4307;SDS011;2167;53.448;9.984;2023-05-13T07:15:38;5.87;;;4.50;;
4307;SDS011;2167;53.448;9.984;2023-05-13T07:18:04;8.20;;;5.37;;
4307;SDS011;2167;53.448;9.984;2023-05-13T07:20:31;8.83;;;4.90;;
4307;SDS011;2167;53.448;9.984;2023-05-13T07:22:56;7.97;;;4.87;;
4307;SDS011;2167;53.448;9.984;2023-05-13T07:25:22;5.90;;;4.80;;
4307;SDS011;2167;53.448;9.984;2023-05-13T07:27:48;4.87;;;4.37;;
4307;SDS011;2167;53.448;9.984;2023-05-13T07:30:13;11.03;;;5.00;;
4307;SDS011;2167;53.448;9.984;2023-05-13T07:32:39;6.93;;;4.57;;
4307;SDS011;2167;53.448;9.984;2023-05-13T07:35:05;7.27;;;3.90;;
4307;SDS011;2167;53.448;9.984;2023-05-13T07:37:32;6.20;;;4.40;;
4307;SDS011;2167;53.448;9.984;2023-05-13T07:39:57;5.30;;;4.03;;
4307;SDS011;2167;53.448;9.984;2023-05-13T07:42:23;5.93;;;4.77;;
4307;SDS011;2167;53.448;9.984;2023-05-13T07:44:49;6.53;;;4.03;;
4307;SDS011;2167;53.448;9.984;2023-05-13T07:47:16;5.43;;;4.63;;
4307;SDS011;2167;53.448;9.984;2023-05-13T07:49:42;5.90;;;4.87;;
4307;SDS011;2167;53.448;9.984;2023-05-13T07:52:08;6.27;;;4.10;;
4307;SDS011;2167;53.448;9.984;2023-05-13T07:54:33;4.73;;;4.23;;
4307;SDS011;2167;53.448;9.984;2023-05-13T07:56:59;5.30;;;4.80;;
4307;SDS011;2167;53.448;9.984;2023-05-13T07:59:25;4.40;;;3.90;;
4307;SDS011;2167;53.448;9.984;2023-05-13T08:01:50;6.07;;;4.20;;
4307;SDS011;2167;53.448;9.984;2023-05-13T08:04:16;5.20;;;4.20;;
4307;SDS011;2167;53.448;9.984;2023-05-13T08:06:42;5.80;;;4.57;;
4307;SDS011;2167;53.448;9.984;2023-05-13T08:09:07;4.50;;;4.07;;
4307;SDS011;2167;53.448;9.984;2023-05-13T08:11:36;5.80;;;4.10;;
4307;SDS011;2167;53.448;9.984;2023-05-13T08:14:02;5.80;;;4.50;;
4307;SDS011;2167;53.448;9.984;2023-05-13T08:16:28;5.37;;;4.87;;
4307;SDS011;2167;53.448;9.984;2023-05-13T08:18:54;6.10;;;4.40;;
4307;SDS011;2167;53.448;9.984;2023-05-13T08:21:20;4.80;;;4.30;;
4307;SDS011;2167;53.448;9.984;2023-05-13T08:23:48;7.60;;;3.97;;
4307;SDS011;2167;53.448;9.984;2023-05-13T08:26:15;6.00;;;4.27;;
4307;SDS011;2167;53.448;9.984;2023-05-13T08:28:41;5.43;;;4.30;;
4307;SDS011;2167;53.448;9.984;2023-05-13T08:31:07;6.93;;;4.70;;
4307;SDS011;2167;53.448;9.984;2023-05-13T08:33:34;7.20;;;4.13;;
4307;SDS011;2167;53.448;9.984;2023-05-13T08:36:00;7.53;;;5.00;;
4307;SDS011;2167;53.448;9.984;2023-05-13T08:38:26;10.90;;;4.27;;
4307;SDS011;2167;53.448;9.984;2023-05-13T08:40:51;5.10;;;4.27;;
4307;SDS011;2167;53.448;9.984;2023-05-13T08:43:17;5.10;;;4.70;;
4307;SDS011;2167;53.448;9.984;2023-05-13T08:45:44;5.67;;;5.03;;
4307;SDS011;2167;53.448;9.984;2023-05-13T08:48:11;4.77;;;4.30;;
4307;SDS011;2167;53.448;9.984;2023-05-13T08:50:39;5.07;;;4.20;;
4307;SDS011;2167;53.448;9.984;2023-05-13T08:53:06;4.27;;;3.87;;
4307;SDS011;2167;53.448;9.984;2023-05-13T08:55:31;6.23;;;4.80;;
4307;SDS011;2167;53.448;9.984;2023-05-13T08:57:58;6.80;;;5.03;;
4307;SDS011;2167;53.448;9.984;2023-05-13T09:00:23;5.87;;;4.37;;
4307;SDS011;2167;53.448;9.984;2023-05-13T09:02:49;5.83;;;3.83;;
4307;SDS011;2167;53.448;9.984;2023-05-13T09:05:15;8.03;;;4.23;;
4307;SDS011;2167;53.448;9.984;2023-05-13T09:07:41;6.03;;;4.00;;
4307;SDS011;2167;53.448;9.984;2023-05-13T09:10:08;5.33;;;4.07;;
4307;SDS011;2167;53.448;9.984;2023-05-13T09:12:50;7.80;;;4.40;;
4307;SDS011;2167;53.448;9.984;2023-05-13T09:17:47;7.43;;;4.40;;
4307;SDS011;2167;53.448;9.984;2023-05-13T09:20:16;5.37;;;4.87;;
4307;SDS011;2167;53.448;9.984;2023-05-13T09:22:47;5.80;;;4.50;;
4307;SDS011;2167;53.448;9.984;2023-05-13T09:25:14;6.10;;;4.20;;
4307;SDS011;2167;53.448;9.984;2023-05-13T09:27:42;5.93;;;4.07;;
4307;SDS011;2167;53.448;9.984;2023-05-13T09:30:10;4.47;;;4.00;;
4307;SDS011;2167;53.448;9.984;2023-05-13T09:32:36;11.23;;;4.50;;
4307;SDS011;2167;53.448;9.984;2023-05-13T09:35:12;4.10;;;3.70;;
4307;SDS011;2167;53.448;9.984;2023-05-13T09:37:43;4.20;;;3.80;;
4307;SDS011;2167;53.448;9.984;2023-05-13T09:40:13;7.20;;;4.60;;
4307;SDS011;2167;53.448;9.984;2023-05-13T09:42:44;5.43;;;4.17;;
4307;SDS011;2167;53.448;9.984;2023-05-13T09:45:11;6.90;;;4.30;;
4307;SDS011;2167;53.448;9.984;2023-05-13T09:47:38;6.27;;;4.40;;
4307;SDS011;2167;53.448;9.984;2023-05-13T09:50:05;6.00;;;3.80;;
4307;SDS011;2167;53.448;9.984;2023-05-13T09:52:33;6.07;;;4.63;;
4307;SDS011;2167;53.448;9.984;2023-05-13T09:55:00;5.50;;;4.00;;
4307;SDS011;2167;53.448;9.984;2023-05-13T09:57:29;6.17;;;4.40;;
4307;SDS011;2167;53.448;9.984;2023-05-13T10:00:02;3.87;;;3.37;;
4307;SDS011;2167;53.448;9.984;2023-05-13T10:02:33;4.13;;;3.67;;
4307;SDS011;2167;53.448;9.984;2023-05-13T10:04:59;6.40;;;4.00;;
4307;SDS011;2167;53.448;9.984;2023-05-13T10:07:26;5.90;;;3.90;;
4307;SDS011;2167;53.448;9.984;2023-05-13T10:09:52;5.13;;;4.20;;
4307;SDS011;2167;53.448;9.984;2023-05-13T10:12:25;6.50;;;4.20;;
4307;SDS011;2167;53.448;9.984;2023-05-13T10:14:53;5.27;;;4.30;;
4307;SDS011;2167;53.448;9.984;2023-05-13T10:17:20;5.33;;;4.93;;
4307;SDS011;2167;53.448;9.984;2023-05-13T10:19:52;7.00;;;4.17;;
4307;SDS011;2167;53.448;9.984;2023-05-13T10:22:28;5.00;;;3.70;;
4307;SDS011;2167;53.448;9.984;2023-05-13T10:24:56;4.70;;;4.17;;
4307;SDS011;2167;53.448;9.984;2023-05-13T10:27:27;4.53;;;3.93;;
4307;SDS011;2167;53.448;9.984;2023-05-13T10:29:58;7.30;;;3.90;;
4307;SDS011;2167;53.448;9.984;2023-05-13T10:32:26;6.83;;;4.33;;
4307;SDS011;2167;53.448;9.984;2023-05-13T10:34:54;5.80;;;3.97;;
4307;SDS011;2167;53.448;9.984;2023-05-13T10:40:21;5.17;;;4.47;;
4307;SDS011;2167;53.448;9.984;2023-05-13T10:45:44;4.27;;;3.87;;
4307;SDS011;2167;53.448;9.984;2023-05-13T10:48:11;5.93;;;4.27;;
4307;SDS011;2167;53.448;9.984;2023-05-13T10:50:38;5.27;;;4.87;;
4307;SDS011;2167;53.448;9.984;2023-05-13T10:53:08;4.93;;;4.30;;
4307;SDS011;2167;53.448;9.984;2023-05-13T10:55:44;4.70;;;3.80;;
4307;SDS011;2167;53.448;9.984;2023-05-13T10:58:13;4.13;;;3.80;;
4307;SDS011;2167;53.448;9.984;2023-05-13T11:00:40;4.70;;;3.80;;
4307;SDS011;2167;53.448;9.984;2023-05-13T11:03:08;3.90;;;3.57;;
4307;SDS011;2167;53.448;9.984;2023-05-13T11:05:33;19.67;;;4.60;;
4307;SDS011;2167;53.448;9.984;2023-05-13T11:07:59;4.40;;;3.90;;
4307;SDS011;2167;53.448;9.984;2023-05-13T11:10:25;7.53;;;3.97;;
4307;SDS011;2167;53.448;9.984;2023-05-13T11:13:06;3.60;;;3.30;;
4307;SDS011;2167;53.448;9.984;2023-05-13T11:15:44;6.77;;;3.57;;
4307;SDS011;2167;53.448;9.984;2023-05-13T11:18:12;5.83;;;3.30;;
4307;SDS011;2167;53.448;9.984;2023-05-13T11:20:38;3.73;;;3.30;;
4307;SDS011;2167;53.448;9.984;2023-05-13T11:23:05;3.30;;;2.93;;
4307;SDS011;2167;53.448;9.984;2023-05-13T11:25:32;4.17;;;3.77;;
4307;SDS011;2167;53.448;9.984;2023-05-13T11:27:58;3.80;;;2.97;;
4307;SDS011;2167;53.448;9.984;2023-05-13T11:30:26;4.33;;;3.47;;
4307;SDS011;2167;53.448;9.984;2023-05-13T11:32:53;5.47;;;3.33;;
4307;SDS011;2167;53.448;9.984;2023-05-13T11:35:20;5.43;;;3.23;;
4307;SDS011;2167;53.448;9.984;2023-05-13T11:37:55;2.60;;;2.40;;
4307;SDS011;2167;53.448;9.984;2023-05-13T11:42:55;3.20;;;2.90;;
4307;SDS011;2167;53.448;9.984;2023-05-13T11:45:23;4.63;;;2.90;;
4307;SDS011;2167;53.448;9.984;2023-05-13T11:47:52;5.63;;;3.50;;
4307;SDS011;2167;53.448;9.984;2023-05-13T11:50:25;5.83;;;3.57;;
4307;SDS011;2167;53.448;9.984;2023-05-13T11:52:55;4.60;;;3.53;;
4307;SDS011;2167;53.448;9.984;2023-05-13T11:55:28;4.17;;;3.10;;
4307;SDS011;2167;53.448;9.984;2023-05-13T11:57:54;3.73;;;3.00;;
4307;SDS011;2167;53.448;9.984;2023-05-13T12:00:25;3.57;;;3.27;;
4307;SDS011;2167;53.448;9.984;2023-05-13T12:02:55;7.20;;;3.67;;
4307;SDS011;2167;53.448;9.984;2023-05-13T12:05:22;5.20;;;3.10;;
4307;SDS011;2167;53.448;9.984;2023-05-13T12:07:48;6.10;;;3.67;;
4307;SDS011;2167;53.448;9.984;2023-05-13T12:10:14;4.70;;;3.10;;
4307;SDS011;2167;53.448;9.984;2023-05-13T12:12:44;3.87;;;3.00;;
4307;SDS011;2167;53.448;9.984;2023-05-13T12:15:11;4.50;;;3.83;;
4307;SDS011;2167;53.448;9.984;2023-05-13T12:17:39;13.00;;;3.47;;
4307;SDS011;2167;53.448;9.984;2023-05-13T12:20:18;3.80;;;3.50;;
4307;SDS011;2167;53.448;9.984;2023-05-13T12:22:49;3.53;;;3.23;;
4307;SDS011;2167;53.448;9.984;2023-05-13T12:25:35;6.30;;;3.73;;
4307;SDS011;2167;53.448;9.984;2023-05-13T12:28:18;4.43;;;3.30;;
4307;SDS011;2167;53.448;9.984;2023-05-13T12:30:56;3.80;;;3.07;;
4307;SDS011;2167;53.448;9.984;2023-05-13T12:33:26;3.27;;;2.97;;
4307;SDS011;2167;53.448;9.984;2023-05-13T12:36:21;8.77;;;3.70;;
4307;SDS011;2167;53.448;9.984;2023-05-13T12:41:26;3.80;;;3.50;;
4307;SDS011;2167;53.448;9.984;2023-05-13T12:44:00;3.93;;;3.20;;
4307;SDS011;2167;53.448;9.984;2023-05-13T12:46:27;5.20;;;3.17;;
4307;SDS011;2167;53.448;9.984;2023-05-13T12:48:57;3.33;;;3.13;;
4307;SDS011;2167;53.448;9.984;2023-05-13T12:51:24;5.20;;;3.30;;
4307;SDS011;2167;53.448;9.984;2023-05-13T12:53:50;4.47;;;3.40;;
4307;SDS011;2167;53.448;9.984;2023-05-13T12:56:18;3.60;;;3.27;;
4307;SDS011;2167;53.448;9.984;2023-05-13T12:58:46;3.27;;;3.00;;
4307;SDS011;2167;53.448;9.984;2023-05-13T13:01:12;5.50;;;3.30;;
4307;SDS011;2167;53.448;9.984;2023-05-13T13:03:37;3.37;;;3.07;;
4307;SDS011;2167;53.448;9.984;2023-05-13T13:06:03;3.93;;;3.47;;
4307;SDS011;2167;53.448;9.984;2023-05-13T13:08:29;9.50;;;3.70;;
4307;SDS011;2167;53.448;9.984;2023-05-13T13:10:54;4.17;;;3.23;;
4307;SDS011;2167;53.448;9.984;2023-05-13T13:13:20;8.37;;;3.43;;
4307;SDS011;2167;53.448;9.984;2023-05-13T13:15:46;7.23;;;3.00;;
4307;SDS011;2167;53.448;9.984;2023-05-13T13:18:12;4.30;;;2.50;;
4307;SDS011;2167;53.448;9.984;2023-05-13T13:20:37;3.10;;;2.90;;
4307;SDS011;2167;53.448;9.984;2023-05-13T13:23:03;3.63;;;3.33;;
4307;SDS011;2167;53.448;9.984;2023-05-13T13:25:29;3.57;;;3.07;;
4307;SDS011;2167;53.448;9.984;2023-05-13T13:27:54;3.20;;;2.90;;
4307;SDS011;2167;53.448;9.984;2023-05-13T13:30:20;4.43;;;2.90;;
4307;SDS011;2167;53.448;9.984;2023-05-13T13:32:45;2.70;;;2.50;;
4307;SDS011;2167;53.448;9.984;2023-05-13T13:35:11;8.17;;;3.70;;
4307;SDS011;2167;53.448;9.984;2023-05-13T13:37:37;3.20;;;2.90;;
4307;SDS011;2167;53.448;9.984;2023-05-13T13:40:03;3.30;;;3.00;;
4307;SDS011;2167;53.448;9.984;2023-05-13T13:42:29;4.43;;;2.90;;
4307;SDS011;2167;53.448;9.984;2023-05-13T13:44:54;3.83;;;2.87;;
4307;SDS011;2167;53.448;9.984;2023-05-13T13:47:20;3.67;;;3.30;;
4307;SDS011;2167;53.448;9.984;2023-05-13T13:49:46;3.33;;;3.03;;
4307;SDS011;2167;53.448;9.984;2023-05-13T13:52:12;3.90;;;3.20;;
4307;SDS011;2167;53.448;9.984;2023-05-13T13:54:38;4.83;;;3.50;;
4307;SDS011;2167;53.448;9.984;2023-05-13T13:57:03;4.37;;;3.00;;
4307;SDS011;2167;53.448;9.984;2023-05-13T13:59:29;5.23;;;2.90;;
4307;SDS011;2167;53.448;9.984;2023-05-13T14:01:55;4.17;;;2.80;;
4307;SDS011;2167;53.448;9.984;2023-05-13T14:04:21;5.23;;;2.93;;
4307;SDS011;2167;53.448;9.984;2023-05-13T14:06:51;4.33;;;3.13;;
4307;SDS011;2167;53.448;9.984;2023-05-13T14:09:19;3.90;;;3.27;;
4307;SDS011;2167;53.448;9.984;2023-05-13T14:11:45;3.07;;;2.80;;
4307;SDS011;2167;53.448;9.984;2023-05-13T14:14:11;4.20;;;3.40;;
4307;SDS011;2167;53.448;9.984;2023-05-13T14:16:37;4.20;;;3.43;;
4307;SDS011;2167;53.448;9.984;2023-05-13T14:19:02;4.90;;;3.10;;
4307;SDS011;2167;53.448;9.984;2023-05-13T14:21:28;4.80;;;3.00;;
4307;SDS011;2167;53.448;9.984;2023-05-13T14:23:54;3.50;;;3.20;;
4307;SDS011;2167;53.448;9.984;2023-05-13T14:26:20;4.17;;;3.10;;
4307;SDS011;2167;53.448;9.984;2023-05-13T14:28:46;8.73;;;3.50;;
4307;SDS011;2167;53.448;9.984;2023-05-13T14:31:11;4.50;;;3.40;;
4307;SDS011;2167;53.448;9.984;2023-05-13T14:33:37;3.50;;;3.20;;
4307;SDS011;2167;53.448;9.984;2023-05-13T14:36:02;7.40;;;3.23;;
4307;SDS011;2167;53.448;9.984;2023-05-13T14:38:29;3.70;;;3.13;;
4307;SDS011;2167;53.448;9.984;2023-05-13T14:40:55;3.07;;;2.77;;
4307;SDS011;2167;53.448;9.984;2023-05-13T14:43:25;5.20;;;3.20;;
4307;SDS011;2167;53.448;9.984;2023-05-13T14:45:55;3.93;;;3.23;;
4307;SDS011;2167;53.448;9.984;2023-05-13T14:48:20;3.23;;;2.90;;
4307;SDS011;2167;53.448;9.984;2023-05-13T14:50:46;3.83;;;3.20;;
4307;SDS011;2167;53.448;9.984;2023-05-13T14:53:12;3.43;;;3.13;;
4307;SDS011;2167;53.448;9.984;2023-05-13T14:55:37;4.10;;;2.80;;
4307;SDS011;2167;53.448;9.984;2023-05-13T14:58:03;6.97;;;3.53;;
4307;SDS011;2167;53.448;9.984;2023-05-13T15:00:29;6.07;;;3.43;;
4307;SDS011;2167;53.448;9.984;2023-05-13T15:02:56;3.33;;;2.80;;
4307;SDS011;2167;53.448;9.984;2023-05-13T15:05:22;3.17;;;2.90;;
4307;SDS011;2167;53.448;9.984;2023-05-13T15:07:48;4.00;;;2.40;;
4307;SDS011;2167;53.448;9.984;2023-05-13T15:10:14;4.10;;;3.40;;
4307;SDS011;2167;53.448;9.984;2023-05-13T15:12:39;3.10;;;2.90;;
4307;SDS011;2167;53.448;9.984;2023-05-13T15:15:05;3.20;;;2.90;;
4307;SDS011;2167;53.448;9.984;2023-05-13T15:17:31;2.77;;;2.57;;
4307;SDS011;2167;53.448;9.984;2023-05-13T15:19:56;6.20;;;2.87;;
4307;SDS011;2167;53.448;9.984;2023-05-13T15:22:22;4.97;;;2.90;;
4307;SDS011;2167;53.448;9.984;2023-05-13T15:24:48;4.10;;;2.90;;
4307;SDS011;2167;53.448;9.984;2023-05-13T15:27:14;3.13;;;2.87;;
4307;SDS011;2167;53.448;9.984;2023-05-13T15:29:41;3.30;;;3.00;;